Time;durP1;ratioP1;P1;durP2;ratioP2;P2;SDS_P1;SDS_P2;PMS_P1;PMS_P2;Temp;Humidity;BMP_temperature;BMP_pressure;BME280_temperature;BME280_humidity;BME280_pressure;Samples;Min_cycle;Max_cycle;Signal;HPM_P1;HPM_P2
2023/01/17 00:02:01;;;;;;;25.6;12.8;;;;;;;-0.1;79.87207;911.3381;;;;
2023/01/17 00:09:57;;;;;;;13.9;7.2;;;;;;;-0.23;80.07129;911.3091;;;;
2023/01/17 00:12:19;;;;;;;10;6.4;;;;;;;-0.29;80.11523;911.3072;;;;
2023/01/17 00:14:44;;;;;;;7;4.3;;;;;;;-0.39;80.41895;911.2347;;;;
2023/01/17 00:17:14;;;;;;;7.5;4.7;;;;;;;-0.46;80.79395;911.288;;;;
2023/01/17 01:35:08;;;;;;;4;2.2;;;;;;;-0.25;79.95605;911.6225;;;;
2023/01/17 01:37:33;;;;;;;3.3;2.4;;;;;;;-0.23;79.9375;911.6523;;;;
2023/01/17 01:40:00;;;;;;;3.1;2;;;;;;;-0.24;79.79102;911.7391;;;;
2023/01/17 01:44:57;;;;;;;2.2;1.9;;;;;;;-0.3;79.60059;911.7003;;;;
2023/01/17 01:47:26;;;;;;;3.2;2.3;;;;;;;-0.39;80.88574;911.6912;;;;
2023/01/17 01:49:51;;;;;;;4.2;2.4;;;;;;;-0.35;80.46094;911.668;;;;
2023/01/17 01:52:20;;;;;;;3.1;2.4;;;;;;;-0.38;80.5332;911.678;;;;
2023/01/17 01:54:53;;;;;;;4;2.3;;;;;;;-0.38;80.55371;911.6303;;;;
2023/01/17 01:57:23;;;;;;;3;2.3;;;;;;;-0.31;80.2334;911.6589;;;;
2023/01/17 01:59:48;;;;;;;2;1.6;;;;;;;-0.36;80.19043;911.6976;;;;
2023/01/17 02:02:18;;;;;;;4.3;1.9;;;;;;;-0.44;80.55469;911.7023;;;;
2023/01/17 02:04:50;;;;;;;2.3;1.7;;;;;;;-0.36;80.37891;911.6883;;;;
2023/01/17 02:07:15;;;;;;;2.8;1.7;;;;;;;-0.28;80.05176;911.6497;;;;
2023/01/17 02:09:40;;;;;;;2.1;1.5;;;;;;;-0.23;80.12695;911.7391;;;;
2023/01/17 02:12:08;;;;;;;4.5;3.1;;;;;;;-0.2;79.73242;911.6583;;;;
2023/01/17 02:14:33;;;;;;;3.4;2.3;;;;;;;-0.2;79.86621;911.6614;;;;
2023/01/17 02:16:58;;;;;;;2.8;2.3;;;;;;;-0.05;79.89355;911.6638;;;;
2023/01/17 02:19:23;;;;;;;3.3;2;;;;;;;-0.11;79.57031;911.7126;;;;
2023/01/17 02:21:48;;;;;;;2.7;1.5;;;;;;;-0.03;78.98535;911.6389;;;;
2023/01/17 02:24:17;;;;;;;1.8;1.4;;;;;;;0.04;78.60742;911.6496;;;;
2023/01/17 02:27:22;;;;;;;1.8;1.4;;;;;;;0.15;78.52734;911.629;;;;
2023/01/17 02:29:47;;;;;;;2.3;1.3;;;;;;;0.24;78.1875;911.6789;;;;
2023/01/17 02:32:12;;;;;;;1.9;1.3;;;;;;;0.2;79.07227;911.6584;;;;
2023/01/17 02:34:37;;;;;;;2.6;1.7;;;;;;;0.25;79.10449;911.6406;;;;
2023/01/17 02:37:09;;;;;;;2.1;1.3;;;;;;;0.33;78.87109;911.7114;;;;
2023/01/17 02:39:34;;;;;;;1.3;1.1;;;;;;;0.17;78.87598;911.6556;;;;
2023/01/17 02:41:59;;;;;;;2.5;1.2;;;;;;;0.17;78.65332;911.676;;;;
2023/01/17 02:44:24;;;;;;;1.8;1.3;;;;;;;0.21;78.40332;911.6459;;;;
2023/01/17 02:46:53;;;;;;;2.5;1.8;;;;;;;0.23;78.11914;911.6179;;;;
2023/01/17 02:49:18;;;;;;;1.6;1.5;;;;;;;0.19;77.7002;911.533;;;;
2023/01/17 02:51:47;;;;;;;1.9;1.4;;;;;;;0.14;77.50098;911.5547;;;;
2023/01/17 02:54:12;;;;;;;2.2;1.7;;;;;;;0.14;77.57813;911.4881;;;;
2023/01/17 02:56:38;;;;;;;3.1;1.6;;;;;;;0.08;78.83691;911.4918;;;;
2023/01/17 02:59:03;;;;;;;2.3;1.8;;;;;;;0.02;78.57031;911.5056;;;;
2023/01/17 03:01:28;;;;;;;2.2;1.5;;;;;;;-0.03;79.02832;911.4113;;;;
2023/01/17 03:03:53;;;;;;;2.1;1.6;;;;;;;-0.1;79.31738;911.432;;;;
2023/01/17 03:06:18;;;;;;;2;1.6;;;;;;;-0.1;79.2041;911.514;;;;
2023/01/17 03:08:47;;;;;;;2.7;1.8;;;;;;;-0.19;79.94629;911.5153;;;;
2023/01/17 03:11:12;;;;;;;8.2;4.8;;;;;;;-0.19;80.0459;911.412;;;;
2023/01/17 03:13:38;;;;;;;10.3;5.2;;;;;;;-0.26;79.96387;911.4215;;;;
2023/01/17 03:16:03;;;;;;;7.6;4.1;;;;;;;-0.39;80.33008;911.4442;;;;
2023/01/17 03:18:30;;;;;;;10.1;5.2;;;;;;;-0.31;80.46777;911.4681;;;;
2023/01/17 03:20:55;;;;;;;6.2;3.5;;;;;;;-0.33;80.51953;911.4922;;;;
2023/01/17 03:23:20;;;;;;;3.8;2.2;;;;;;;-0.38;80.82129;911.5224;;;;
2023/01/17 03:25:45;;;;;;;4.2;2.2;;;;;;;-0.47;80.64844;911.5489;;;;
2023/01/17 03:28:51;;;;;;;4.9;2.7;;;;;;;-0.63;81.99805;911.6381;;;;
2023/01/17 03:31:20;;;;;;;3.7;2.5;;;;;;;-0.57;81.61914;911.6147;;;;
2023/01/17 03:33:45;;;;;;;4.6;3;;;;;;;-0.54;81.80273;911.6203;;;;
2023/01/17 03:36:13;;;;;;;4.8;2.8;;;;;;;-0.64;81.70508;911.6381;;;;
2023/01/17 03:38:38;;;;;;;6.3;3.3;;;;;;;-0.63;81.6748;911.6093;;;;
2023/01/17 03:41:05;;;;;;;5.4;3.1;;;;;;;-0.65;81.27148;911.6467;;;;
2023/01/17 03:43:30;;;;;;;3.6;2.4;;;;;;;-0.77;82.16992;911.6473;;;;
2023/01/17 03:46:06;;;;;;;3.7;2.3;;;;;;;-0.85;82.57617;911.6183;;;;
2023/01/17 03:48:34;;;;;;;2.7;1.8;;;;;;;-0.88;82.72656;911.5898;;;;
2023/01/17 03:50:59;;;;;;;4.2;2.1;;;;;;;-0.91;82.62109;911.5389;;;;
2023/01/17 03:53:26;;;;;;;2.7;2;;;;;;;-1.01;83.06836;911.5105;;;;
2023/01/17 03:55:51;;;;;;;3;1.8;;;;;;;-1.09;83.58594;911.5583;;;;
2023/01/17 03:58:19;;;;;;;3.1;1.8;;;;;;;-1.07;83.40234;911.5217;;;;
2023/01/17 04:02:43;;;;;;;2.4;1.8;;;;;;;-1.09;83.55273;911.5153;;;;
2023/01/17 04:05:08;;;;;;;3.3;1.8;;;;;;;-1.09;83.38574;911.4622;;;;
2023/01/17 04:07:52;;;;;;;3.7;1.7;;;;;;;-1.08;83.08789;911.4849;;;;
2023/01/17 04:10:23;;;;;;;2.8;1.8;;;;;;;-1.16;83.59375;911.435;;;;
2023/01/17 04:12:52;;;;;;;2.6;1.7;;;;;;;-1.13;83.97852;911.4072;;;;
2023/01/17 04:15:18;;;;;;;3.5;2;;;;;;;-1.15;84.05273;911.4445;;;;
2023/01/17 04:17:59;;;;;;;3.1;1.9;;;;;;;-1.23;84.39063;911.4208;;;;
2023/01/17 04:20:24;;;;;;;3.9;2.4;;;;;;;-1.21;84.30664;911.3961;;;;
2023/01/17 04:22:50;;;;;;;3.8;2.9;;;;;;;-1.21;84.41797;911.3859;;;;
2023/01/17 04:25:20;;;;;;;5;2.9;;;;;;;-1.3;84.69922;911.4522;;;;
2023/01/17 04:27:45;;;;;;;4.4;2.6;;;;;;;-1.25;84.31055;911.413;;;;
2023/01/17 04:30:19;;;;;;;3.1;2.2;;;;;;;-1.35;84.5;911.4011;;;;
2023/01/17 04:32:49;;;;;;;4.4;2.3;;;;;;;-1.42;85.14063;911.4031;;;;
2023/01/17 04:35:14;;;;;;;3;1.6;;;;;;;-1.42;85.17578;911.3962;;;;
2023/01/17 04:37:40;;;;;;;3.2;1.9;;;;;;;-1.42;85.02051;911.429;;;;
2023/01/17 04:40:40;;;;;;;3.8;2.7;;;;;;;-1.33;84.91406;911.334;;;;
2023/01/17 04:43:13;;;;;;;4.6;3;;;;;;;-1.31;84.78516;911.3334;;;;
2023/01/17 04:45:43;;;;;;;5.1;3.3;;;;;;;-1.36;84.66504;911.3908;;;;
2023/01/17 04:48:11;;;;;;;4.7;3.2;;;;;;;-1.45;85.01465;911.4817;;;;
2023/01/17 04:50:33;;;;;;;5.8;3.7;;;;;;;-1.41;85.06445;911.4828;;;;
2023/01/17 04:53:01;;;;;;;4;2.9;;;;;;;-1.36;84.66504;911.5195;;;;
2023/01/17 04:55:26;;;;;;;4.1;3;;;;;;;-1.35;84.54395;911.5165;;;;
2023/01/17 04:57:53;;;;;;;4.7;3.3;;;;;;;-1.38;84.53711;911.4788;;;;
2023/01/17 05:00:18;;;;;;;4.8;2.9;;;;;;;-1.4;84.55762;911.5535;;;;
2023/01/17 05:02:46;;;;;;;4;2.9;;;;;;;-1.45;84.60254;911.5371;;;;
2023/01/17 05:05:12;;;;;;;3.2;2.9;;;;;;;-1.54;84.61719;911.537;;;;
2023/01/17 05:07:40;;;;;;;3.2;2.5;;;;;;;-1.51;84.95605;911.6044;;;;
2023/01/17 05:10:05;;;;;;;3.7;2.7;;;;;;;-1.55;84.98145;911.618;;;;
2023/01/17 05:12:30;;;;;;;1.9;1.7;;;;;;;-1.61;85.28125;911.7287;;;;
2023/01/17 05:14:57;;;;;;;2;1.7;;;;;;;-1.68;85.62012;911.7551;;;;
2023/01/17 05:17:23;;;;;;;1.9;1.7;;;;;;;-1.69;86.12891;911.7628;;;;
2023/01/17 05:23:17;;;;;;;3.1;2.2;;;;;;;-1.76;86.73535;911.8828;;;;
2023/01/17 05:25:44;;;;;;;2.9;2.6;;;;;;;-1.62;86.1875;911.8541;;;;
2023/01/17 05:28:09;;;;;;;3;2.2;;;;;;;-1.58;86.30762;911.8541;;;;
2023/01/17 05:30:35;;;;;;;3.8;2.5;;;;;;;-1.48;85.75098;911.9012;;;;
2023/01/17 05:33:01;;;;;;;3;2.3;;;;;;;-1.43;85.13867;911.7994;;;;
2023/01/17 05:35:31;;;;;;;2.7;1.8;;;;;;;-1.41;84.87598;911.9253;;;;
2023/01/17 05:37:55;;;;;;;1.8;1.3;;;;;;;-1.45;84.60254;911.9264;;;;
2023/01/17 05:40:24;;;;;;;1.4;1;;;;;;;-1.52;84.85352;911.949;;;;
2023/01/17 05:42:53;;;;;;;1.1;1;;;;;;;-1.51;84.91113;911.943;;;;
2023/01/17 05:45:18;;;;;;;1.6;0.9;;;;;;;-1.44;84.82617;911.8929;;;;
2023/01/17 05:47:46;;;;;;;1.7;1.4;;;;;;;-1.33;84.34766;911.8508;;;;
2023/01/17 05:50:51;;;;;;;1.6;1.2;;;;;;;-1.3;83.98926;911.7784;;;;
2023/01/17 05:53:15;;;;;;;1.6;1.5;;;;;;;-1.29;83.52441;911.8597;;;;
2023/01/17 05:55:41;;;;;;;2.1;1.5;;;;;;;-1.12;82.05664;911.789;;;;
2023/01/17 05:58:06;;;;;;;2.7;1.9;;;;;;;-1.07;81.67871;911.8019;;;;
2023/01/17 06:00:38;;;;;;;4.8;3.1;;;;;;;-1.07;81.65625;911.8207;;;;
2023/01/17 06:03:02;;;;;;;4.9;3.1;;;;;;;-1.08;81.56543;911.7449;;;;
2023/01/17 06:05:30;;;;;;;5.3;3.3;;;;;;;-1.21;82.2627;911.7573;;;;
2023/01/17 06:07:55;;;;;;;3.7;2.7;;;;;;;-1.28;82.62695;911.7288;;;;
2023/01/17 06:10:21;;;;;;;3.4;2.1;;;;;;;;;;;;;
2023/01/17 06:12:45;;;;;;;1.7;1.3;;;;;;;;;;;;;
2023/01/17 06:15:12;;;;;;;2.9;1.7;;;;;;;;;;;;;
2023/01/17 06:17:43;;;;;;;3.2;2.6;;;;;;;;;;;;;
2023/01/17 06:20:02;;;;;;;5.8;3.7;;;;;;;;;;;;;
2023/01/17 06:22:28;;;;;;;8.8;5.8;;;;;;;;;;;;;
2023/01/17 06:24:53;;;;;;;9.2;6.2;;;;;;;;;;;;;
2023/01/17 06:27:20;;;;;;;11.8;7.6;;;;;;;;;;;;;
2023/01/17 06:29:45;;;;;;;9.3;6.1;;;;;;;;;;;;;
2023/01/17 06:32:12;;;;;;;9.1;6;;;;;;;;;;;;;
2023/01/17 06:34:37;;;;;;;5.5;4.2;;;;;;;;;;;;;
2023/01/17 06:37:03;;;;;;;4.9;3.3;;;;;;;;;;;;;
2023/01/17 06:39:28;;;;;;;5.3;3.6;;;;;;;;;;;;;
2023/01/17 06:41:54;;;;;;;4.3;3.1;;;;;;;;;;;;;
2023/01/17 06:44:19;;;;;;;3.8;2.7;;;;;;;;;;;;;
2023/01/17 06:46:46;;;;;;;5.1;2.8;;;;;;;;;;;;;
2023/01/17 06:49:11;;;;;;;4.4;3.3;;;;;;;;;;;;;
2023/01/17 06:51:38;;;;;;;4.1;2.7;;;;;;;;;;;;;
2023/01/17 06:54:03;;;;;;;5.1;3;;;;;;;;;;;;;
2023/01/17 06:56:28;;;;;;;5.3;3.3;;;;;;;;;;;;;
2023/01/17 06:58:53;;;;;;;7.7;5.4;;;;;;;;;;;;;
2023/01/17 07:01:30;;;;;;;7.2;4.8;;;;;;;;;;;;;
2023/01/17 07:03:56;;;;;;;10.3;7.2;;;;;;;;;;;;;
2023/01/17 07:06:22;;;;;;;13.1;9;;;;;;;;;;;;;
2023/01/17 07:08:49;;;;;;;14.6;9;;;;;;;;;;;;;
2023/01/17 07:11:14;;;;;;;5.1;3.5;;;;;;;;;;;;;
2023/01/17 07:13:39;;;;;;;5;3.8;;;;;;;;;;;;;
2023/01/17 07:16:04;;;;;;;5.6;4.2;;;;;;;;;;;;;
2023/01/17 07:18:31;;;;;;;5.8;4.2;;;;;;;;;;;;;
2023/01/17 07:20:57;;;;;;;10.3;7.2;;;;;;;;;;;;;
2023/01/17 07:23:22;;;;;;;11.5;7.3;;;;;;;;;;;;;
2023/01/17 07:25:47;;;;;;;8.1;5.1;;;;;;;;;;;;;
2023/01/17 07:28:13;;;;;;;6.8;4.8;;;;;;;;;;;;;
2023/01/17 07:31:21;;;;;;;7.3;5.3;;;;;;;;;;;;;
2023/01/17 07:33:28;;;;;;;7.8;5.2;;;;;;;;;;;;;
2023/01/17 07:35:53;;;;;;;11.9;6.6;;;;;;;;;;;;;
2023/01/17 07:38:44;;;;;;;9.6;6.9;;;;;;;;;;;;;
2023/01/17 07:41:12;;;;;;;8.6;5;;;;;;;;;;;;;
2023/01/17 07:43:39;;;;;;;7.6;5.5;;;;;;;;;;;;;
2023/01/17 07:46:04;;;;;;;25.6;15;;;;;;;;;;;;;
2023/01/17 07:48:29;;;;;;;9.2;6.5;;;;;;;;;;;;;
2023/01/17 07:50:54;;;;;;;7.4;4.9;;;;;;;;;;;;;
2023/01/17 07:53:21;;;;;;;7.3;4.4;;;;;;;;;;;;;
2023/01/17 07:55:47;;;;;;;6.6;3.9;;;;;;;;;;;;;
2023/01/17 07:58:13;;;;;;;5.6;3.5;;;;;;;;;;;;;
2023/01/17 08:00:37;;;;;;;6.7;4.2;;;;;;;;;;;;;
2023/01/17 08:03:18;;;;;;;6.5;4;;;;;;;;;;;;;
2023/01/17 08:05:44;;;;;;;9;6.1;;;;;;;;;;;;;
2023/01/17 08:08:09;;;;;;;9.8;6;;;;;;;;;;;;;
2023/01/17 08:10:34;;;;;;;7.6;4.9;;;;;;;;;;;;;
2023/01/17 08:13:01;;;;;;;8.3;4.7;;;;;;;;;;;;;
2023/01/17 08:15:26;;;;;;;5;3.5;;;;;;;;;;;;;
2023/01/17 08:17:56;;;;;;;6.8;3.8;;;;;;;;;;;;;
2023/01/17 08:20:19;;;;;;;5.1;3.6;;;;;;;;;;;;;
2023/01/17 08:22:44;;;;;;;6.1;4;;;;;;;;;;;;;
2023/01/17 08:25:09;;;;;;;6.4;4.3;;;;;;;;;;;;;
2023/01/17 08:27:37;;;;;;;6.3;3.4;;;;;;;;;;;;;
2023/01/17 08:30:02;;;;;;;4;2.4;;;;;;;;;;;;;
2023/01/17 08:32:28;;;;;;;3.1;1.9;;;;;;;;;;;;;
2023/01/17 08:34:55;;;;;;;5.2;2.4;;;;;;;;;;;;;
2023/01/17 08:37:20;;;;;;;3.1;2.2;;;;;;;;;;;;;
2023/01/17 08:39:45;;;;;;;5.3;3.1;;;;;;;;;;;;;
2023/01/17 08:42:11;;;;;;;4.8;2.8;;;;;;;;;;;;;
2023/01/17 08:44:40;;;;;;;3.4;2.1;;;;;;;;;;;;;
2023/01/17 08:47:06;;;;;;;4;2.4;;;;;;;;;;;;;
2023/01/17 08:49:31;;;;;;;5.9;3.6;;;;;;;;;;;;;
2023/01/17 08:51:57;;;;;;;5.8;3.6;;;;;;;;;;;;;
2023/01/17 08:54:22;;;;;;;4.3;3.4;;;;;;;;;;;;;
2023/01/17 08:56:47;;;;;;;6.2;4.1;;;;;;;;;;;;;
2023/01/17 08:59:14;;;;;;;7.9;4.5;;;;;;;;;;;;;
2023/01/17 09:01:41;;;;;;;7;3.7;;;;;;;;;;;;;
2023/01/17 09:04:04;;;;;;;6.1;3.3;;;;;;;;;;;;;
2023/01/17 09:06:29;;;;;;;5.3;3.1;;;;;;;;;;;;;
2023/01/17 09:08:55;;;;;;;4.2;2.8;;;;;;;;;;;;;
2023/01/17 09:11:21;;;;;;;6.5;2.7;;;;;;;;;;;;;
2023/01/17 09:13:46;;;;;;;4.2;2.8;;;;;;;;;;;;;
2023/01/17 09:16:14;;;;;;;7.2;4.8;;;;;;;;;;;;;
2023/01/17 09:18:39;;;;;;;10.2;5.9;;;;;;;;;;;;;
2023/01/17 09:21:04;;;;;;;8.6;5.8;;;;;;;;;;;;;
2023/01/17 09:23:29;;;;;;;6.7;4.4;;;;;;;;;;;;;
2023/01/17 09:25:57;;;;;;;5;3.2;;;;;;;;;;;;;
2023/01/17 09:28:22;;;;;;;3.2;2.5;;;;;;;;;;;;;
2023/01/17 09:30:49;;;;;;;4.6;2;;;;;;;;;;;;;
2023/01/17 09:33:14;;;;;;;5.4;2.7;;;;;;;;;;;;;
2023/01/17 09:35:41;;;;;;;4.3;2.3;;;;;;;;;;;;;
2023/01/17 09:38:06;;;;;;;3.9;2.2;;;;;;;;;;;;;
2023/01/17 09:40:31;;;;;;;3.7;2.1;;;;;;;;;;;;;
2023/01/17 09:43:00;;;;;;;1.3;1.2;;;;;;;;;;;;;
2023/01/17 09:45:21;;;;;;;2.2;1.1;;;;;;;;;;;;;
2023/01/17 09:47:49;;;;;;;2;1;;;;;;;;;;;;;
2023/01/17 09:50:14;;;;;;;2.1;1;;;;;;;;;;;;;
2023/01/17 09:52:39;;;;;;;2.5;1;;;;;;;;;;;;;
2023/01/17 09:55:04;;;;;;;1.3;1;;;;;;;;;;;;;
2023/01/17 09:57:29;;;;;;;4;0.8;;;;;;;;;;;;;
2023/01/17 09:59:54;;;;;;;2.6;1.1;;;;;;;;;;;;;
2023/01/17 10:02:20;;;;;;;2;0.7;;;;;;;;;;;;;
2023/01/17 10:04:47;;;;;;;1;0.8;;;;;;;;;;;;;
2023/01/17 10:07:10;;;;;;;4;0.8;;;;;;;;;;;;;
2023/01/17 10:09:36;;;;;;;0.9;0.8;;;;;;;;;;;;;
2023/01/17 10:12:00;;;;;;;1.8;0.9;;;;;;;;;;;;;
2023/01/17 10:14:25;;;;;;;1.5;0.8;;;;;;;;;;;;;
2023/01/17 10:16:50;;;;;;;0.7;0.7;;;;;;;;;;;;;
2023/01/17 10:19:18;;;;;;;1;0.9;;;;;;;;;;;;;
2023/01/17 10:21:43;;;;;;;4.4;1.4;;;;;;;;;;;;;
2023/01/17 10:24:15;;;;;;;2.5;1.6;;;;;;;;;;;;;
2023/01/17 10:26:34;;;;;;;3.4;2.2;;;;;;;;;;;;;
2023/01/17 10:28:59;;;;;;;4.1;2;;;;;;;;;;;;;
2023/01/17 10:31:24;;;;;;;5.1;1.9;;;;;;;;;;;;;
2023/01/17 10:33:49;;;;;;;2.4;1.8;;;;;;;;;;;;;
2023/01/17 10:36:15;;;;;;;5.6;2.8;;;;;;;;;;;;;
2023/01/17 10:38:42;;;;;;;3.6;2.4;;;;;;;;;;;;;
2023/01/17 10:41:06;;;;;;;4.6;2.2;;;;;;;;;;;;;
2023/01/17 10:43:31;;;;;;;3.2;2;;;;;;;;;;;;;
2023/01/17 10:45:59;;;;;;;1.7;1.6;;;;;;;;;;;;;
2023/01/17 10:48:24;;;;;;;2.3;1.8;;;;;;;;;;;;;
2023/01/17 10:50:51;;;;;;;3.3;1.8;;;;;;;;;;;;;
2023/01/17 10:53:16;;;;;;;5.1;2.8;;;;;;;;;;;;;
2023/01/17 10:55:41;;;;;;;3.9;2.5;;;;;;;;;;;;;
2023/01/17 10:58:06;;;;;;;3.1;2.1;;;;;;;;;;;;;
2023/01/17 11:00:32;;;;;;;3.9;2.3;;;;;;;;;;;;;
2023/01/17 11:02:57;;;;;;;4.5;2.1;;;;;;;;;;;;;
2023/01/17 11:05:24;;;;;;;2.9;2.1;;;;;;;;;;;;;
2023/01/17 11:07:49;;;;;;;4;2.2;;;;;;;;;;;;;
2023/01/17 11:10:16;;;;;;;7.5;2.8;;;;;;;;;;;;;
2023/01/17 11:12:41;;;;;;;4.6;2.5;;;;;;;;;;;;;
2023/01/17 11:15:08;;;;;;;5;3.3;;;;;;;;;;;;;
2023/01/17 11:17:34;;;;;;;4.1;3.2;;;;;;;;;;;;;
2023/01/17 11:19:59;;;;;;;3.5;2.6;;;;;;;;;;;;;
2023/01/17 11:22:25;;;;;;;2.4;1.9;;;;;;;;;;;;;
2023/01/17 11:24:51;;;;;;;3.1;1.3;;;;;;;;;;;;;
2023/01/17 11:27:16;;;;;;;2;1.2;;;;;;;;;;;;;
2023/01/17 11:29:42;;;;;;;1;0.9;;;;;;;;;;;;;
2023/01/17 11:32:07;;;;;;;0.9;0.8;;;;;;;;;;;;;
2023/01/17 11:34:33;;;;;;;1.3;1;;;;;;;;;;;;;
2023/01/17 11:36:58;;;;;;;0.5;0.5;;;;;;;;;;;;;
2023/01/17 11:39:26;;;;;;;0.6;0.6;;;;;;;;;;;;;
2023/01/17 11:41:51;;;;;;;1.3;0.6;;;;;;;;;;;;;
2023/01/17 11:44:17;;;;;;;1.7;0.8;;;;;;;;;;;;;
2023/01/17 11:46:42;;;;;;;1;0.9;;;;;;;;;;;;;
2023/01/17 11:49:07;;;;;;;2.4;0.9;;;;;;;;;;;;;
2023/01/17 11:51:32;;;;;;;1.5;0.6;;;;;;;;;;;;;
2023/01/17 11:53:57;;;;;;;1.1;0.5;;;;;;;;;;;;;
2023/01/17 11:56:23;;;;;;;2.5;1.2;;;;;;;;;;;;;
2023/01/17 11:58:49;;;;;;;1.9;1.2;;;;;;;;;;;;;
2023/01/17 12:01:14;;;;;;;2.5;1.5;;;;;;;;;;;;;
2023/01/17 12:03:39;;;;;;;2.4;1.5;;;;;;;;;;;;;
2023/01/17 12:06:04;;;;;;;1.5;1.3;;;;;;;;;;;;;
2023/01/17 12:08:29;;;;;;;6.6;1.2;;;;;;;;;;;;;
2023/01/17 12:10:54;;;;;;;2.8;1.1;;;;;;;;;;;;;
2023/01/17 12:15:44;;;;;;;2.6;1.2;;;;;;;;;;;;;
2023/01/17 12:18:09;;;;;;;2.6;1.2;;;;;;;;;;;;;
2023/01/17 12:20:36;;;;;;;4.1;1.5;;;;;;;;;;;;;
2023/01/17 12:23:01;;;;;;;4.4;1.9;;;;;;;;;;;;;
2023/01/17 12:25:27;;;;;;;3.5;1.7;;;;;;;;;;;;;
2023/01/17 12:27:53;;;;;;;25.4;12.4;;;;;;;;;;;;;
2023/01/17 12:30:19;;;;;;;19.2;10.7;;;;;;;;;;;;;
2023/01/17 12:32:45;;;;;;;6.2;3.5;;;;;;;;;;;;;
2023/01/17 12:35:11;;;;;;;3;1.9;;;;;;;;;;;;;
2023/01/17 12:37:36;;;;;;;5.2;1.8;;;;;;;;;;;;;
2023/01/17 12:40:01;;;;;;;3;1.6;;;;;;;;;;;;;
2023/01/17 12:42:27;;;;;;;2.8;1.7;;;;;;;;;;;;;
2023/01/17 12:44:52;;;;;;;3.2;1.7;;;;;;;;;;;;;
2023/01/17 12:47:17;;;;;;;3.1;2.1;;;;;;;;;;;;;
2023/01/17 12:49:42;;;;;;;3.8;2.1;;;;;;;;;;;;;
2023/01/17 12:52:07;;;;;;;4.5;2.2;;;;;;;;;;;;;
2023/01/17 12:54:32;;;;;;;4.5;2.7;;;;;;;;;;;;;
2023/01/17 12:57:00;;;;;;;3.1;2.1;;;;;;;;;;;;;
2023/01/17 12:59:25;;;;;;;5.7;2.7;;;;;;;;;;;;;
2023/01/17 13:01:56;;;;;;;13;10.8;;;;;;;;;;;;;
2023/01/17 13:04:16;;;;;;;4.4;2.9;;;;;;;;;;;;;
2023/01/17 13:06:43;;;;;;;4.4;2.4;;;;;;;;;;;;;
2023/01/17 13:09:08;;;;;;;5.2;1.9;;;;;;;;;;;;;
2023/01/17 13:11:39;;;;;;;3.6;2.1;;;;;;;;;;;;;
2023/01/17 13:14:02;;;;;;;3.5;1.9;;;;;;;;;;;;;
2023/01/17 13:16:27;;;;;;;3.7;1.6;;;;;;;;;;;;;
2023/01/17 13:18:52;;;;;;;2;1.6;;;;;;;;;;;;;
2023/01/17 13:21:17;;;;;;;5.7;2.8;;;;;;;;;;;;;
2023/01/17 13:23:43;;;;;;;2.9;2;;;;;;;;;;;;;
2023/01/17 13:26:08;;;;;;;5.3;4.9;;;;;;;;;;;;;
2023/01/17 13:28:33;;;;;;;2.8;1.3;;;;;;;;;;;;;
2023/01/17 13:30:58;;;;;;;2.2;1.5;;;;;;;;;;;;;
2023/01/17 13:33:24;;;;;;;4.7;1.8;;;;;;;;;;;;;
2023/01/17 13:35:50;;;;;;;2.8;1.7;;;;;;;;;;;;;
2023/01/17 13:38:17;;;;;;;8.1;5.4;;;;;;;;;;;;;
2023/01/17 13:40:42;;;;;;;4.3;2.2;;;;;;;;;;;;;
2023/01/17 13:43:07;;;;;;;3;1.8;;;;;;;;;;;;;
2023/01/17 13:45:33;;;;;;;9.1;2.6;;;;;;;;;;;;;
2023/01/17 13:47:58;;;;;;;6;2.5;;;;;;;;;;;;;
2023/01/17 13:50:25;;;;;;;3.9;2.3;;;;;;;;;;;;;
2023/01/17 13:52:56;;;;;;;5.2;1.8;;;;;;;;;;;;;
2023/01/17 13:55:33;;;;;;;3.7;1.4;;;;;;;;;;;;;
2023/01/17 13:57:58;;;;;;;3.5;1.7;;;;;;;;;;;;;
2023/01/17 14:00:23;;;;;;;10.9;3.8;;;;;;;;;;;;;
2023/01/17 14:02:48;;;;;;;8.8;3.6;;;;;;;;;;;;;
2023/01/17 14:05:14;;;;;;;1.6;1.3;;;;;;;;;;;;;
2023/01/17 14:07:41;;;;;;;2;1.1;;;;;;;;;;;;;
2023/01/17 14:10:06;;;;;;;2.6;1.8;;;;;;;;;;;;;
2023/01/17 14:12:32;;;;;;;7.4;2.7;;;;;;;;;;;;;
2023/01/17 14:14:57;;;;;;;7.1;3.5;;;;;;;;;;;;;
2023/01/17 14:17:26;;;;;;;5.4;3.2;;;;;;;;;;;;;
2023/01/17 14:19:50;;;;;;;5.1;3.4;;;;;;;;;;;;;
2023/01/17 14:22:15;;;;;;;5.4;2.9;;;;;;;;;;;;;
2023/01/17 14:24:41;;;;;;;7.1;3.9;;;;;;;;;;;;;
2023/01/17 14:27:07;;;;;;;7.1;4.2;;;;;;;;;;;;;
2023/01/17 14:29:32;;;;;;;6.9;4;;;;;;;;;;;;;
2023/01/17 14:31:57;;;;;;;13.2;5;;;;;;;;;;;;;
2023/01/17 14:34:24;;;;;;;10.8;4.7;;;;;;;;;;;;;
2023/01/17 14:36:49;;;;;;;9.9;4.7;;;;;;;;;;;;;
2023/01/17 14:39:14;;;;;;;9.9;5.9;;;;;;;;;;;;;
2023/01/17 14:41:39;;;;;;;8;4.1;;;;;;;;;;;;;
2023/01/17 14:44:04;;;;;;;8;3.7;;;;;;;;;;;;;
2023/01/17 14:46:32;;;;;;;6.1;3.6;;;;;;;;;;;;;
2023/01/17 14:48:57;;;;;;;9.7;4.2;;;;;;;;;;;;;
2023/01/17 14:51:23;;;;;;;5.9;4.1;;;;;;;;;;;;;
2023/01/17 14:53:47;;;;;;;8.7;3.3;;;;;;;;;;;;;
2023/01/17 14:56:15;;;;;;;7.6;3.6;;;;;;;;;;;;;
2023/01/17 14:58:40;;;;;;;4.8;2.4;;;;;;;;;;;;;
2023/01/17 15:01:05;;;;;;;7.2;3.3;;;;;;;;;;;;;
2023/01/17 15:03:30;;;;;;;5.4;3.1;;;;;;;;;;;;;
2023/01/17 15:05:56;;;;;;;7.7;3.4;;;;;;;;;;;;;
2023/01/17 15:08:21;;;;;;;9.6;3.9;;;;;;;;;;;;;
2023/01/17 15:10:46;;;;;;;8.8;4.8;;;;;;;;;;;;;
2023/01/17 15:13:12;;;;;;;11.1;4.5;;;;;;;;;;;;;
2023/01/17 15:15:42;;;;;;;7.7;3.6;;;;;;;;;;;;;
2023/01/17 15:18:09;;;;;;;7.1;2.6;;;;;;;;;;;;;
2023/01/17 15:20:34;;;;;;;7.4;3.7;;;;;;;;;;;;;
2023/01/17 15:23:02;;;;;;;9.9;4.8;;;;;;;;;;;;;
2023/01/17 15:25:27;;;;;;;9.7;4.7;;;;;;;;;;;;;
2023/01/17 15:27:54;;;;;;;12.3;6.1;;;;;;;;;;;;;
2023/01/17 15:30:23;;;;;;;14.6;7.3;;;;;;;;;;;;;
2023/01/17 15:32:44;;;;;;;14.2;6.9;;;;;;;;;;;;;
2023/01/17 15:35:13;;;;;;;16.5;8;;;;;;;;;;;;;
2023/01/17 15:37:38;;;;;;;12.4;6.2;;;;;;;;;;;;;
2023/01/17 15:40:03;;;;;;;12;6.4;;;;;;;;;;;;;
2023/01/17 15:42:30;;;;;;;15.7;9.1;;;;;;;;;;;;;
2023/01/17 15:44:54;;;;;;;10;6.8;;;;;;;;;;;;;
2023/01/17 15:47:22;;;;;;;8.1;4.2;;;;;;;;;;;;;
2023/01/17 15:49:47;;;;;;;6.5;3.8;;;;;;;;;;;;;
2023/01/17 15:52:13;;;;;;;4.9;3.3;;;;;;;;;;;;;
2023/01/17 15:54:38;;;;;;;5.6;2.9;;;;;;;;;;;;;
2023/01/17 15:57:04;;;;;;;4.5;2.5;;;;;;;;;;;;;
2023/01/17 15:59:29;;;;;;;4.5;2.3;;;;;;;;;;;;;
2023/01/17 16:01:55;;;;;;;3.3;1.7;;;;;;;;;;;;;
2023/01/17 16:04:19;;;;;;;2.9;1.8;;;;;;;;;;;;;
2023/01/17 16:06:46;;;;;;;2.4;1.8;;;;;;;;;;;;;
2023/01/17 16:09:09;;;;;;;3;1.7;;;;;;;;;;;;;
2023/01/17 16:11:36;;;;;;;2.6;1.9;;;;;;;;;;;;;
2023/01/17 16:14:01;;;;;;;1.6;1.5;;;;;;;;;;;;;
2023/01/17 16:16:27;;;;;;;3.1;1.7;;;;;;;;;;;;;
2023/01/17 16:18:52;;;;;;;3.1;2;;;;;;;;;;;;;
2023/01/17 16:21:19;;;;;;;3.9;1.9;;;;;;;;;;;;;
2023/01/17 16:23:43;;;;;;;3.3;2.1;;;;;;;;;;;;;
2023/01/17 16:26:09;;;;;;;4;2.2;;;;;;;;;;;;;
2023/01/17 16:28:34;;;;;;;4.5;2.5;;;;;;;;;;;;;
2023/01/17 16:30:59;;;;;;;3.8;2.5;;;;;;;;;;;;;
2023/01/17 16:33:25;;;;;;;3.6;2.4;;;;;;;;;;;;;
2023/01/17 16:35:52;;;;;;;3.6;2.2;;;;;;;;;;;;;
2023/01/17 16:38:18;;;;;;;3.9;2.6;;;;;;;;;;;;;
2023/01/17 16:40:45;;;;;;;3.8;2.5;;;;;;;;;;;;;
2023/01/17 16:43:10;;;;;;;9.5;4.6;;;;;;;;;;;;;
2023/01/17 16:45:37;;;;;;;15.1;7;;;;;;;;;;;;;
2023/01/17 16:48:02;;;;;;;12.9;7;;;;;;;;;;;;;
2023/01/17 16:50:27;;;;;;;11.2;6.1;;;;;;;;;;;;;
2023/01/17 16:52:53;;;;;;;10.8;6.4;;;;;;;;;;;;;
2023/01/17 16:55:20;;;;;;;9.6;5.3;;;;;;;;;;;;;
2023/01/17 16:57:45;;;;;;;9.9;4.7;;;;;;;;;;;;;
2023/01/17 17:00:12;;;;;;;10;5.1;;;;;;;;;;;;;
2023/01/17 17:02:39;;;;;;;8.1;4.4;;;;;;;;;;;;;
2023/01/17 17:05:06;;;;;;;8.4;4;;;;;;;;;;;;;
2023/01/17 17:07:29;;;;;;;9.6;4.9;;;;;;;;;;;;;
2023/01/17 17:09:54;;;;;;;7;4.4;;;;;;;;;;;;;
2023/01/17 17:12:19;;;;;;;10.2;4.9;;;;;;;;;;;;;
2023/01/17 17:14:45;;;;;;;6.9;4.5;;;;;;;;;;;;;
2023/01/17 17:17:10;;;;;;;9.8;6;;;;;;;;;;;;;
2023/01/17 17:19:36;;;;;;;26.4;11.5;;;;;;;;;;;;;
2023/01/17 17:22:01;;;;;;;13;6.9;;;;;;;;;;;;;
2023/01/17 17:24:28;;;;;;;12;7.1;;;;;;;;;;;;;
2023/01/17 17:26:53;;;;;;;17;9.9;;;;;;;;;;;;;
2023/01/17 17:29:19;;;;;;;15.1;9.4;;;;;;;;;;;;;
2023/01/17 17:31:44;;;;;;;27.5;14.5;;;;;;;;;;;;;
2023/01/17 17:34:11;;;;;;;23;13.4;;;;;;;;;;;;;
2023/01/17 17:36:36;;;;;;;23.2;14.1;;;;;;;;;;;;;
2023/01/17 17:39:02;;;;;;;20.4;13.5;;;;;;;;;;;;;
2023/01/17 17:41:27;;;;;;;14.2;9.7;;;;;;;;;;;;;
2023/01/17 17:43:54;;;;;;;13.3;8.5;;;;;;;;;;;;;
2023/01/17 17:46:19;;;;;;;12.3;8.7;;;;;;;;;;;;;
2023/01/17 17:48:44;;;;;;;14.3;9;;;;;;;;;;;;;
2023/01/17 17:51:09;;;;;;;27.5;17.8;;;;;;;;;;;;;
2023/01/17 17:53:34;;;;;;;28.8;17.9;;;;;;;;;;;;;
2023/01/17 17:55:59;;;;;;;12.8;8;;;;;;;;;;;;;
2023/01/17 17:58:26;;;;;;;15.8;8.4;;;;;;;;;;;;;
2023/01/17 18:00:51;;;;;;;15;8.6;;;;;;;;;;;;;
2023/01/17 18:03:16;;;;;;;31.8;17.8;;;;;;;;;;;;;
2023/01/17 18:05:45;;;;;;;30.3;17.8;;;;;;;;;;;;;
2023/01/17 18:08:11;;;;;;;26.6;16.7;;;;;;;;;;;;;
2023/01/17 18:10:36;;;;;;;24.7;15.1;;;;;;;;;;;;;
2023/01/17 18:13:01;;;;;;;23.6;14.7;;;;;;;;;;;;;
2023/01/17 18:15:28;;;;;;;25.9;14.2;;;;;;;;;;;;;
2023/01/17 18:17:54;;;;;;;29.7;18.2;;;;;;;;;;;;;
2023/01/17 18:20:19;;;;;;;28;17.1;;;;;;;;;;;;;
2023/01/17 18:22:44;;;;;;;27.4;15.7;;;;;;;;;;;;;
2023/01/17 18:25:12;;;;;;;29.2;17;;;;;;;;;;;;;
2023/01/17 18:27:37;;;;;;;30.2;17.1;;;;;;;;;;;;;
2023/01/17 18:30:02;;;;;;;29.5;17.5;;;;;;;;;;;;;
2023/01/17 18:32:27;;;;;;;20.9;14.2;;;;;;;;;;;;;
2023/01/17 18:34:53;;;;;;;29;15.3;;;;;;;;;;;;;
2023/01/17 18:37:19;;;;;;;21.3;13.1;;;;;;;;;;;;;
2023/01/17 18:39:45;;;;;;;15.8;10.3;;;;;;;;;;;;;
2023/01/17 18:42:10;;;;;;;14;8.7;;;;;;;;;;;;;
2023/01/17 18:44:36;;;;;;;17.6;9.4;;;;;;;;;;;;;
2023/01/17 18:47:03;;;;;;;16.8;9;;;;;;;;;;;;;
2023/01/17 18:49:28;;;;;;;16.3;8.5;;;;;;;;;;;;;
2023/01/17 18:51:53;;;;;;;12.2;8.2;;;;;;;;;;;;;
2023/01/17 18:54:20;;;;;;;12.5;6.8;;;;;;;;;;;;;
2023/01/17 18:56:45;;;;;;;14.6;7.9;;;;;;;;;;;;;
2023/01/17 18:59:13;;;;;;;12.8;6.4;;;;;;;;;;;;;
2023/01/17 19:01:40;;;;;;;14.8;8.2;;;;;;;;;;;;;
2023/01/17 19:04:03;;;;;;;16.4;9.5;;;;;;;;;;;;;
2023/01/17 19:06:32;;;;;;;20.9;11.8;;;;;;;;;;;;;
2023/01/17 19:09:01;;;;;;;25.6;12.6;;;;;;;;;;;;;
2023/01/17 19:11:26;;;;;;;18.4;11.5;;;;;;;;;;;;;
2023/01/17 19:13:52;;;;;;;13.2;8.6;;;;;;;;;;;;;
2023/01/17 19:16:18;;;;;;;12.4;7.3;;;;;;;;;;;;;
2023/01/17 19:18:44;;;;;;;13.3;8;;;;;;;;;;;;;
2023/01/17 19:21:09;;;;;;;15.3;9.2;;;;;;;;;;;;;
2023/01/17 19:23:35;;;;;;;10.5;7.1;;;;;;;;;;;;;
2023/01/17 19:25:59;;;;;;;10.3;6.9;;;;;;;;;;;;;
2023/01/17 19:28:27;;;;;;;14.7;9.3;;;;;;;;;;;;;
2023/01/17 19:30:51;;;;;;;14.9;9.5;;;;;;;;;;;;;
2023/01/17 19:33:17;;;;;;;13.6;8.5;;;;;;;;;;;;;
2023/01/17 19:35:42;;;;;;;11.6;6.7;;;;;;;;;;;;;
2023/01/17 19:38:07;;;;;;;10.6;6.8;;;;;;;;;;;;;
2023/01/17 19:40:32;;;;;;;17.8;9.4;;;;;;;;;;;;;
2023/01/17 19:42:59;;;;;;;16.2;9.5;;;;;;;;;;;;;
2023/01/17 19:45:24;;;;;;;15.3;8.2;;;;;;;;;;;;;
2023/01/17 19:47:49;;;;;;;15.8;9.6;;;;;;;;;;;;;
2023/01/17 19:50:17;;;;;;;15.6;9.3;;;;;;;;;;;;;
2023/01/17 19:52:42;;;;;;;14.7;8.7;;;;;;;;;;;;;
2023/01/17 19:55:08;;;;;;;11.8;6.9;;;;;;;;;;;;;
2023/01/17 19:57:35;;;;;;;10.7;6.5;;;;;;;;;;;;;
2023/01/17 19:59:59;;;;;;;9.3;6.1;;;;;;;;;;;;;
2023/01/17 20:02:27;;;;;;;8.9;6.2;;;;;;;;;;;;;
2023/01/17 20:04:52;;;;;;;6.9;4.8;;;;;;;;;;;;;
2023/01/17 20:07:18;;;;;;;6;3.6;;;;;;;;;;;;;
2023/01/17 20:09:43;;;;;;;8.5;4.7;;;;;;;;;;;;;